createdAt,value
2019-03-19T00:00:16.588Z,89.60
2019-03-19T00:02:45.039Z,89.50
2019-03-19T00:05:13.560Z,89.50
2019-03-19T00:07:42.066Z,89.10
2019-03-19T00:10:10.759Z,88.80
2019-03-19T00:12:39.213Z,88.90
2019-03-19T00:15:09.937Z,89.10
2019-03-19T00:17:38.466Z,89.00
2019-03-19T00:20:10.028Z,89.80
2019-03-19T00:22:38.531Z,89.30
2019-03-19T00:25:07.596Z,89.00
2019-03-19T00:27:36.043Z,88.60
2019-03-19T00:30:12.987Z,88.70
2019-03-19T00:32:41.512Z,88.70
2019-03-19T00:35:10.042Z,88.60
2019-03-19T00:37:38.629Z,89.00
2019-03-19T00:40:09.399Z,89.00
2019-03-19T00:42:37.926Z,88.60
2019-03-19T00:45:09.332Z,88.90
2019-03-19T00:47:37.936Z,89.20
2019-03-19T00:50:09.875Z,89.10
2019-03-19T00:52:38.336Z,89.70
2019-03-19T00:55:07.770Z,89.50
2019-03-19T00:57:36.295Z,89.60
2019-03-19T01:00:16.537Z,89.50
2019-03-19T01:02:45.068Z,89.80
2019-03-19T01:05:13.872Z,89.40
2019-03-19T01:07:42.423Z,89.60
2019-03-19T01:10:12.755Z,89.90
2019-03-19T01:12:40.511Z,90.00
2019-03-19T01:15:11.210Z,90.00
2019-03-19T01:17:39.742Z,89.90
2019-03-19T01:20:13.114Z,90.00
2019-03-19T01:22:41.656Z,90.10
2019-03-19T01:25:10.812Z,90.10
2019-03-19T01:27:39.328Z,89.80
2019-03-19T01:30:10.454Z,90.10
2019-03-19T01:32:39.171Z,90.10
2019-03-19T01:35:08.472Z,90.20
2019-03-19T01:37:36.970Z,90.10
2019-03-19T01:40:08.234Z,90.20
2019-03-19T01:42:36.722Z,90.20
2019-03-19T01:45:08.186Z,90.10
2019-03-19T01:47:36.640Z,90.20
2019-03-19T01:50:07.864Z,90.50
2019-03-19T01:52:36.315Z,90.30
2019-03-19T01:55:07.907Z,90.40
2019-03-19T01:57:36.414Z,90.50
2019-03-19T02:00:11.004Z,90.50
2019-03-19T02:02:39.462Z,90.40
2019-03-19T02:05:08.359Z,90.30
2019-03-19T02:07:38.162Z,90.30
2019-03-19T02:10:18.534Z,90.30
2019-03-19T02:12:46.249Z,90.20
2019-03-19T02:15:18.720Z,90.20
2019-03-19T02:17:47.155Z,90.20
2019-03-19T02:20:16.875Z,90.10
2019-03-19T02:22:45.377Z,90.00
2019-03-19T02:25:13.818Z,89.80
2019-03-19T02:27:42.275Z,89.50
2019-03-19T02:30:17.149Z,89.40
2019-03-19T02:32:45.647Z,89.60
2019-03-19T02:35:14.158Z,89.50
2019-03-19T02:37:42.598Z,89.90
2019-03-19T02:40:12.911Z,89.60
2019-03-19T02:42:41.213Z,89.80
2019-03-19T02:45:12.318Z,89.70
2019-03-19T02:47:40.748Z,89.50
2019-03-19T02:50:18.893Z,89.50
2019-03-19T02:52:47.343Z,89.60
2019-03-19T02:55:15.850Z,89.60
2019-03-19T02:57:44.377Z,89.10
2019-03-19T03:00:17.717Z,89.50
2019-03-19T03:02:46.161Z,89.60
2019-03-19T03:05:16.802Z,89.60
2019-03-19T03:07:45.658Z,89.80
2019-03-19T03:10:14.514Z,89.80
2019-03-19T03:12:42.965Z,89.50
2019-03-19T03:15:13.157Z,89.50
2019-03-19T03:17:41.746Z,89.80
2019-03-19T03:20:12.935Z,90.00
2019-03-19T03:22:41.378Z,90.10
2019-03-19T03:25:12.330Z,90.20
2019-03-19T03:27:40.806Z,90.30
2019-03-19T03:30:16.694Z,90.30
2019-03-19T03:32:45.287Z,90.30
2019-03-19T03:35:13.866Z,90.40
2019-03-19T03:37:42.385Z,90.40
2019-03-19T03:40:18.316Z,90.40
2019-03-19T03:42:46.981Z,90.50
2019-03-19T03:45:16.373Z,90.50
2019-03-19T03:47:44.879Z,90.40
2019-03-19T03:50:15.553Z,90.60
2019-03-19T03:52:44.166Z,90.50
2019-03-19T03:55:16.594Z,90.60
2019-03-19T03:57:45.155Z,90.50
2019-03-19T04:00:18.989Z,90.60
2019-03-19T04:02:47.733Z,90.50
2019-03-19T04:05:16.724Z,90.50
2019-03-19T04:07:45.239Z,90.60
2019-03-19T04:10:15.344Z,90.70
2019-03-19T04:12:43.862Z,90.70
2019-03-19T04:15:16.651Z,90.90
2019-03-19T04:17:45.283Z,90.90
2019-03-19T04:20:18.325Z,90.90
2019-03-19T04:22:46.774Z,90.90
2019-03-19T04:25:15.273Z,91.00
2019-03-19T04:27:43.776Z,91.00
2019-03-19T04:30:16.163Z,91.10
2019-03-19T04:32:44.607Z,91.10
2019-03-19T04:35:13.056Z,90.90
2019-03-19T04:37:41.545Z,91.00
2019-03-19T04:40:14.880Z,91.00
2019-03-19T04:42:44.063Z,90.90
2019-03-19T04:45:16.460Z,90.80
2019-03-19T04:47:45.185Z,90.80
2019-03-19T04:50:15.777Z,91.00
2019-03-19T04:52:44.429Z,91.10
2019-03-19T04:55:16.396Z,91.10
2019-03-19T04:57:45.055Z,91.10
2019-03-19T05:00:16.650Z,91.00
2019-03-19T05:02:45.096Z,90.90
2019-03-19T05:05:14.124Z,91.00
2019-03-19T05:07:42.567Z,90.90
2019-03-19T05:10:18.724Z,90.90
2019-03-19T05:12:47.231Z,91.00
2019-03-19T05:15:15.709Z,90.90
2019-03-19T05:17:44.159Z,90.80
2019-03-19T05:20:13.534Z,91.00
2019-03-19T05:22:42.009Z,90.90
2019-03-19T05:25:11.238Z,90.90
2019-03-19T05:27:39.953Z,90.90
2019-03-19T05:30:13.249Z,90.90
2019-03-19T05:32:41.737Z,90.90
2019-03-19T05:35:10.521Z,91.00
2019-03-19T05:37:39.047Z,90.80
2019-03-19T05:40:10.256Z,90.90
2019-03-19T05:42:38.784Z,90.70
2019-03-19T05:45:10.428Z,90.70
2019-03-19T05:47:40.455Z,90.90
2019-03-19T05:50:11.536Z,91.10
2019-03-19T05:52:40.054Z,91.00
2019-03-19T05:55:09.487Z,91.10
2019-03-19T05:57:48.415Z,90.90
2019-03-19T06:00:11.221Z,90.90
2019-03-19T06:02:39.689Z,90.80
2019-03-19T06:05:10.949Z,90.80
2019-03-19T06:07:39.433Z,90.30
2019-03-19T06:10:13.375Z,90.30
2019-03-19T06:12:42.015Z,90.40
2019-03-19T06:15:17.002Z,90.30
2019-03-19T06:17:45.565Z,90.10
2019-03-19T06:20:17.145Z,90.30
2019-03-19T06:22:45.604Z,90.20
2019-03-19T06:25:14.416Z,90.20
2019-03-19T06:27:42.857Z,90.10
2019-03-19T06:30:16.690Z,90.20
2019-03-19T06:32:45.290Z,90.20
2019-03-19T06:35:14.974Z,90.40
2019-03-19T06:37:43.454Z,90.30
2019-03-19T06:40:14.101Z,90.30
2019-03-19T06:42:42.546Z,90.10
2019-03-19T06:45:15.678Z,90.30
2019-03-19T06:47:44.291Z,90.30
2019-03-19T06:50:17.534Z,89.10
2019-03-19T06:52:46.018Z,89.00
2019-03-19T06:55:16.476Z,88.60
2019-03-19T06:57:44.150Z,88.90
2019-03-19T07:00:20.848Z,88.50
2019-03-19T07:02:49.526Z,88.40
2019-03-19T07:05:39.236Z,88.40
2019-03-19T07:08:07.749Z,88.50
2019-03-19T07:10:36.193Z,88.90
2019-03-19T07:13:04.862Z,88.90
2019-03-19T07:15:33.431Z,88.10
2019-03-19T07:18:01.902Z,88.20
2019-03-19T07:20:30.384Z,87.50
2019-03-19T07:22:58.873Z,88.00
2019-03-19T07:25:27.326Z,87.60
2019-03-19T07:27:55.765Z,87.70
2019-03-19T07:30:25.583Z,86.50
2019-03-19T07:32:54.103Z,85.40
2019-03-19T07:35:23.583Z,86.00
2019-03-19T07:37:52.089Z,86.20
2019-03-19T07:40:20.609Z,85.50
2019-03-19T07:42:49.131Z,85.40
2019-03-19T07:45:21.873Z,84.10
2019-03-19T07:47:50.445Z,85.00
2019-03-19T07:50:20.225Z,84.80
2019-03-19T07:52:48.754Z,85.00
2019-03-19T07:55:17.319Z,84.50
2019-03-19T07:57:45.829Z,84.30
2019-03-19T08:00:15.926Z,84.20
2019-03-19T08:02:44.640Z,84.10
2019-03-19T08:05:13.736Z,84.70
2019-03-19T08:07:42.312Z,84.80
2019-03-19T08:10:17.559Z,82.50
2019-03-19T08:12:46.793Z,82.90
2019-03-19T08:15:16.387Z,82.00
2019-03-19T08:17:44.844Z,82.20
2019-03-19T08:20:15.737Z,82.30
2019-03-19T08:22:44.418Z,82.40
2019-03-19T08:25:13.798Z,82.20
2019-03-19T08:27:42.281Z,82.00
2019-03-19T08:30:18.831Z,81.50
2019-03-19T08:32:47.395Z,81.80
2019-03-19T08:35:15.834Z,81.50
2019-03-19T08:37:44.271Z,81.00
2019-03-19T08:40:36.574Z,80.60
2019-03-19T08:43:05.006Z,80.50
2019-03-19T08:45:33.482Z,81.00
2019-03-19T08:48:01.936Z,81.40
2019-03-19T08:50:30.406Z,80.00
2019-03-19T08:52:58.850Z,78.90
2019-03-19T08:55:27.642Z,78.70
2019-03-19T08:57:56.121Z,77.70
2019-03-19T09:00:26.264Z,78.40
2019-03-19T09:02:54.773Z,78.10
2019-03-19T09:05:23.222Z,77.70
2019-03-19T09:07:51.671Z,74.80
2019-03-19T09:10:23.365Z,74.80
2019-03-19T09:12:51.800Z,75.10
2019-03-19T09:15:27.509Z,76.90
2019-03-19T09:17:55.998Z,76.80
2019-03-19T09:20:24.440Z,76.90
2019-03-19T09:22:52.954Z,76.10
2019-03-19T09:25:21.399Z,75.60
2019-03-19T09:27:49.849Z,75.30
2019-03-19T09:30:19.578Z,72.80
2019-03-19T09:32:48.105Z,73.40
2019-03-19T09:35:16.626Z,73.50
2019-03-19T09:37:57.240Z,73.50
2019-03-19T09:40:19.988Z,73.90
2019-03-19T09:42:48.845Z,72.90
2019-03-19T09:45:18.161Z,73.00
2019-03-19T09:47:47.040Z,70.70
2019-03-19T09:50:20.817Z,72.70
2019-03-19T09:52:49.332Z,70.40
2019-03-19T09:55:17.944Z,70.90
2019-03-19T09:57:46.728Z,71.10
2019-03-19T10:00:23.114Z,68.80
2019-03-19T10:02:51.803Z,69.00
2019-03-19T10:05:20.314Z,68.80
2019-03-19T10:07:48.933Z,69.60
2019-03-19T10:10:23.868Z,70.00
2019-03-19T10:12:52.366Z,71.20
2019-03-19T10:15:20.986Z,67.80
2019-03-19T10:17:49.511Z,68.50
2019-03-19T10:20:23.076Z,67.70
2019-03-19T10:22:51.531Z,68.30
2019-03-19T10:25:19.999Z,66.80
2019-03-19T10:27:48.446Z,66.30
2019-03-19T10:30:24.644Z,65.50
2019-03-19T10:32:53.093Z,64.70
2019-03-19T10:35:21.779Z,63.80
2019-03-19T10:37:50.287Z,65.10
2019-03-19T10:40:19.679Z,65.50
2019-03-19T10:42:48.368Z,63.80
2019-03-19T10:45:18.162Z,63.50
2019-03-19T10:47:46.597Z,64.30
2019-03-19T10:50:23.055Z,64.20
2019-03-19T10:52:51.509Z,64.50
2019-03-19T10:55:20.092Z,63.30
2019-03-19T10:57:48.646Z,61.00
2019-03-19T11:00:24.142Z,61.00
2019-03-19T11:02:53.070Z,60.30
2019-03-19T11:05:22.649Z,59.40
2019-03-19T11:07:51.417Z,58.70
2019-03-19T11:10:20.194Z,60.10
2019-03-19T11:12:48.642Z,58.40
2019-03-19T11:15:18.488Z,59.30
2019-03-19T11:17:47.010Z,57.90
2019-03-19T11:20:17.293Z,58.50
2019-03-19T11:22:46.063Z,58.10
2019-03-19T11:25:25.833Z,58.10
2019-03-19T11:27:54.409Z,57.00
2019-03-19T11:30:30.843Z,57.00
2019-03-19T11:32:59.449Z,56.40
2019-03-19T11:35:28.067Z,56.30
2019-03-19T11:37:56.522Z,56.40
2019-03-19T11:40:26.126Z,55.50
2019-03-19T11:42:54.851Z,56.30
2019-03-19T11:45:25.112Z,56.00
2019-03-19T11:47:53.585Z,52.90
2019-03-19T11:50:26.474Z,52.60
2019-03-19T11:52:55.160Z,51.40
2019-03-19T11:55:23.701Z,50.60
2019-03-19T11:57:52.679Z,51.30
2019-03-19T12:00:33.208Z,51.00
2019-03-19T12:03:11.432Z,50.50
2019-03-19T12:05:31.841Z,50.30
2019-03-19T12:08:00.367Z,49.10
2019-03-19T12:10:28.945Z,50.80
2019-03-19T12:12:57.561Z,52.20
2019-03-19T12:15:26.209Z,53.60
2019-03-19T12:17:54.657Z,53.60
2019-03-19T12:20:23.146Z,53.60
2019-03-19T12:22:51.590Z,53.10
2019-03-19T12:25:20.201Z,52.60
2019-03-19T12:27:48.710Z,53.30
2019-03-19T12:30:25.757Z,53.60
2019-03-19T12:32:52.204Z,54.10
2019-03-19T12:35:21.059Z,54.50
2019-03-19T12:37:49.514Z,54.90
2019-03-19T12:40:22.094Z,54.10
2019-03-19T12:42:50.577Z,55.30
2019-03-19T12:45:20.370Z,56.00
2019-03-19T12:47:48.859Z,55.40
2019-03-19T12:50:20.009Z,56.40
2019-03-19T12:52:48.452Z,56.80
2019-03-19T12:55:16.930Z,57.30
2019-03-19T12:57:47.012Z,56.40
2019-03-19T13:00:33.468Z,57.30
2019-03-19T13:02:53.078Z,57.40
2019-03-19T13:05:22.696Z,56.60
2019-03-19T13:07:51.911Z,55.60
2019-03-19T13:10:24.998Z,53.60
2019-03-19T13:12:53.473Z,53.00
2019-03-19T13:15:22.160Z,51.00
2019-03-19T13:17:50.623Z,51.60
2019-03-19T13:20:23.157Z,47.20
2019-03-19T13:22:51.722Z,44.60
2019-03-19T13:25:25.141Z,44.00
2019-03-19T13:27:53.822Z,43.10
2019-03-19T13:30:30.127Z,43.60
2019-03-19T13:32:58.705Z,46.40
2019-03-19T13:35:27.150Z,47.90
2019-03-19T13:37:55.586Z,49.80
2019-03-19T13:40:24.126Z,50.40
2019-03-19T13:42:52.604Z,51.00
2019-03-19T13:45:24.438Z,50.00
2019-03-19T13:47:53.074Z,50.50
2019-03-19T13:50:22.462Z,49.80
2019-03-19T13:52:50.905Z,49.60
2019-03-19T13:55:23.341Z,50.10
2019-03-19T13:57:51.854Z,50.90
2019-03-19T14:00:20.582Z,51.00
2019-03-19T14:02:49.154Z,52.10
2019-03-19T14:05:18.311Z,51.40
2019-03-19T14:07:46.737Z,51.50
2019-03-19T14:10:20.033Z,51.00
2019-03-19T14:12:48.749Z,50.50
2019-03-19T14:15:27.507Z,50.50
2019-03-19T14:17:56.096Z,47.70
2019-03-19T14:20:24.552Z,47.00
2019-03-19T14:22:53.057Z,47.40
2019-03-19T14:25:21.512Z,47.50
2019-03-19T14:27:50.036Z,46.50
2019-03-19T14:30:19.673Z,46.20
2019-03-19T14:32:48.120Z,47.20
2019-03-19T14:35:16.639Z,48.30
2019-03-19T14:37:45.282Z,48.10
2019-03-19T14:40:22.248Z,48.80
2019-03-19T14:42:50.893Z,50.50
2019-03-19T14:45:19.943Z,49.80
2019-03-19T14:47:48.530Z,51.30
2019-03-19T14:50:21.615Z,50.70
2019-03-19T14:52:50.059Z,51.10
2019-03-19T14:55:18.737Z,52.10
2019-03-19T14:57:47.183Z,50.50
2019-03-19T15:00:23.199Z,52.00
2019-03-19T15:02:51.689Z,50.60
2019-03-19T15:05:20.296Z,51.40
2019-03-19T15:07:48.799Z,50.60
2019-03-19T15:10:19.660Z,50.10
2019-03-19T15:12:48.174Z,49.90
2019-03-19T15:15:17.523Z,50.60
2019-03-19T15:17:46.184Z,50.30
2019-03-19T15:20:21.692Z,52.40
2019-03-19T15:22:50.128Z,53.20
2019-03-19T15:25:18.578Z,51.50
2019-03-19T15:27:47.081Z,50.50
2019-03-19T15:30:21.638Z,49.80
2019-03-19T15:32:50.122Z,49.70
2019-03-19T15:35:18.609Z,48.20
2019-03-19T15:37:47.510Z,47.60
2019-03-19T15:40:17.092Z,48.20
2019-03-19T15:42:45.550Z,46.80
2019-03-19T15:45:22.644Z,47.40
2019-03-19T15:47:51.089Z,47.30
2019-03-19T15:50:19.853Z,49.20
2019-03-19T15:52:48.312Z,49.20
2019-03-19T15:55:16.757Z,50.30
2019-03-19T15:57:45.266Z,50.60
2019-03-19T16:00:15.290Z,52.30
2019-03-19T16:02:43.961Z,52.70
2019-03-19T16:05:13.459Z,53.10
2019-03-19T16:07:42.501Z,53.20
2019-03-19T16:10:15.589Z,53.80
2019-03-19T16:12:44.031Z,53.70
2019-03-19T16:15:21.262Z,52.80
2019-03-19T16:17:49.715Z,53.10
2019-03-19T16:20:19.334Z,55.00
2019-03-19T16:22:47.783Z,55.30
2019-03-19T16:25:16.390Z,54.10
2019-03-19T16:27:44.876Z,55.70
2019-03-19T16:30:16.389Z,55.70
2019-03-19T16:32:44.878Z,56.40
2019-03-19T16:35:14.119Z,56.90
2019-03-19T16:37:42.563Z,57.10
2019-03-19T16:40:19.640Z,57.90
2019-03-19T16:42:48.082Z,58.10
2019-03-19T16:45:17.970Z,58.70
2019-03-19T16:47:46.912Z,59.50
2019-03-19T16:50:20.058Z,61.00
2019-03-19T16:52:48.585Z,61.40
2019-03-19T16:55:18.430Z,62.10
2019-03-19T16:57:46.883Z,61.50
2019-03-19T17:00:18.007Z,62.40
2019-03-19T17:02:46.507Z,62.70
2019-03-19T17:05:16.494Z,62.90
2019-03-19T17:07:44.940Z,64.50
2019-03-19T17:10:16.071Z,64.20
2019-03-19T17:12:44.714Z,64.50
2019-03-19T17:15:15.239Z,65.40
2019-03-19T17:17:43.196Z,65.80
2019-03-19T17:20:13.178Z,67.60
2019-03-19T17:22:41.839Z,68.00
2019-03-19T17:25:20.193Z,70.80
2019-03-19T17:27:48.796Z,70.40
2019-03-19T17:30:33.830Z,71.60
2019-03-19T17:33:02.414Z,72.50
2019-03-19T17:35:30.862Z,73.20
2019-03-19T17:37:59.305Z,73.80
2019-03-19T17:40:27.817Z,75.00
2019-03-19T17:42:56.261Z,75.40
2019-03-19T17:45:24.700Z,76.70
2019-03-19T17:47:53.191Z,77.40
2019-03-19T17:50:26.301Z,77.50
2019-03-19T17:52:55.861Z,79.00
2019-03-19T17:55:24.509Z,79.70
2019-03-19T17:57:52.985Z,79.80
2019-03-19T18:00:23.496Z,80.70
2019-03-19T18:02:51.265Z,81.30
2019-03-19T18:05:19.716Z,82.30
2019-03-19T18:07:48.198Z,82.10
2019-03-19T18:10:16.818Z,82.30
2019-03-19T18:12:45.318Z,82.60
2019-03-19T18:15:20.320Z,82.90
2019-03-19T18:17:48.942Z,83.10
2019-03-19T18:20:18.356Z,82.90
2019-03-19T18:22:46.805Z,83.40
2019-03-19T18:25:16.456Z,84.80
2019-03-19T18:27:44.917Z,84.80
2019-03-19T18:30:24.376Z,84.50
2019-03-19T18:32:52.813Z,84.90
2019-03-19T18:35:21.348Z,85.50
2019-03-19T18:37:49.830Z,85.40
2019-03-19T18:40:19.113Z,85.40
2019-03-19T18:42:47.621Z,87.00
2019-03-19T18:45:18.556Z,87.40
2019-03-19T18:47:47.073Z,87.20
2019-03-19T18:50:22.477Z,87.30
2019-03-19T18:52:50.927Z,88.30
2019-03-19T18:55:19.370Z,88.30
2019-03-19T18:57:47.841Z,88.70
2019-03-19T19:00:23.205Z,88.90
2019-03-19T19:02:51.704Z,89.00
2019-03-19T19:05:24.081Z,89.20
2019-03-19T19:07:52.585Z,89.90
2019-03-19T19:10:21.675Z,90.10
2019-03-19T19:12:50.490Z,90.20
2019-03-19T19:15:21.211Z,90.00
2019-03-19T19:17:49.688Z,90.30
2019-03-19T19:20:18.607Z,90.30
2019-03-19T19:22:47.117Z,90.50
2019-03-19T19:25:24.455Z,90.60
2019-03-19T19:27:52.973Z,90.80
2019-03-19T19:30:29.658Z,91.20
2019-03-19T19:33:01.936Z,91.40
2019-03-19T19:35:28.274Z,91.30
2019-03-19T19:37:56.745Z,91.60
2019-03-19T19:40:25.251Z,91.70
2019-03-19T19:42:53.696Z,91.60
2019-03-19T19:45:22.147Z,91.70
2019-03-19T19:47:51.561Z,91.70
2019-03-19T19:50:22.061Z,91.50
2019-03-19T19:52:49.726Z,91.60
2019-03-19T19:55:18.296Z,91.70
2019-03-19T19:57:47.176Z,92.00
2019-03-19T20:00:20.085Z,91.90
2019-03-19T20:02:48.821Z,91.90
2019-03-19T20:05:17.436Z,92.00
2019-03-19T20:07:45.958Z,92.10
2019-03-19T20:10:25.482Z,92.10
2019-03-19T20:12:54.006Z,92.20
2019-03-19T20:15:22.445Z,92.50
2019-03-19T20:17:50.950Z,92.40
2019-03-19T20:20:24.586Z,92.20
2019-03-19T20:22:53.037Z,92.10
2019-03-19T20:25:21.504Z,92.20
2019-03-19T20:27:49.963Z,92.40
2019-03-19T20:30:20.031Z,92.50
2019-03-19T20:32:48.529Z,92.50
2019-03-19T20:35:16.969Z,92.40
2019-03-19T20:37:45.495Z,92.70
2019-03-19T20:40:17.325Z,92.70
2019-03-19T20:42:46.110Z,92.70
2019-03-19T20:45:24.195Z,92.60
2019-03-19T20:47:52.648Z,92.60
2019-03-19T20:50:26.325Z,92.40
2019-03-19T20:52:54.806Z,92.50
2019-03-19T20:55:23.242Z,92.50
2019-03-19T20:57:52.057Z,92.70
2019-03-19T21:00:20.690Z,92.80
2019-03-19T21:02:49.146Z,92.80
2019-03-19T21:05:17.642Z,92.60
2019-03-19T21:07:46.158Z,92.70
2019-03-19T21:10:17.155Z,92.50
2019-03-19T21:12:45.701Z,92.60
2019-03-19T21:15:19.361Z,92.90
2019-03-19T21:17:48.930Z,92.90
2019-03-19T21:20:17.740Z,93.00
2019-03-19T21:22:46.277Z,93.00
2019-03-19T21:25:14.723Z,93.10
2019-03-19T21:27:44.790Z,93.20
2019-03-19T21:30:16.099Z,93.30
2019-03-19T21:32:44.548Z,93.20
2019-03-19T21:35:13.381Z,93.10
2019-03-19T21:37:41.908Z,93.20
2019-03-19T21:40:12.998Z,93.40
2019-03-19T21:42:41.527Z,93.40
2019-03-19T21:45:14.605Z,93.50
2019-03-19T21:47:43.036Z,93.30
2019-03-19T21:50:14.167Z,93.30
2019-03-19T21:52:42.679Z,93.40
2019-03-19T21:55:14.071Z,93.30
2019-03-19T21:57:42.098Z,93.90
2019-03-19T22:00:18.501Z,93.60
2019-03-19T22:02:46.989Z,93.60
2019-03-19T22:05:15.698Z,93.50
2019-03-19T22:07:44.144Z,93.50
2019-03-19T22:10:17.022Z,93.50
2019-03-19T22:12:45.465Z,94.00
2019-03-19T22:15:16.508Z,94.00
2019-03-19T22:17:45.098Z,94.10
2019-03-19T22:20:34.737Z,94.00
2019-03-19T22:23:03.247Z,94.10
2019-03-19T22:25:31.686Z,94.20
2019-03-19T22:28:00.120Z,94.00
2019-03-19T22:30:28.644Z,94.00
2019-03-19T22:32:57.081Z,93.90
2019-03-19T22:35:25.528Z,93.90
2019-03-19T22:37:54.008Z,93.90
2019-03-19T22:40:22.453Z,94.00
2019-03-19T22:42:50.933Z,94.00
2019-03-19T22:45:19.814Z,93.90
2019-03-19T22:47:48.583Z,93.90
2019-03-19T22:50:17.980Z,93.90
2019-03-19T22:52:46.662Z,93.90
2019-03-19T22:55:15.976Z,94.00
2019-03-19T22:57:44.784Z,94.10
2019-03-19T23:00:23.113Z,94.00
2019-03-19T23:02:51.692Z,94.00
2019-03-19T23:05:20.142Z,94.00
2019-03-19T23:07:48.653Z,94.00
2019-03-19T23:10:17.094Z,94.10
2019-03-19T23:12:45.546Z,94.10
2019-03-19T23:15:14.469Z,94.40
2019-03-19T23:17:42.981Z,94.10
2019-03-19T23:20:14.966Z,94.10
2019-03-19T23:22:43.443Z,94.10
2019-03-19T23:25:12.416Z,94.10
2019-03-19T23:27:40.913Z,94.10
2019-03-19T23:30:17.510Z,93.90
2019-03-19T23:32:46.632Z,94.00
2019-03-19T23:35:15.156Z,94.20
2019-03-19T23:37:43.660Z,94.40
2019-03-19T23:40:14.048Z,94.40
2019-03-19T23:42:41.714Z,94.30
2019-03-19T23:45:11.741Z,94.30
2019-03-19T23:47:40.190Z,94.40
2019-03-19T23:50:15.779Z,94.40
2019-03-19T23:52:44.289Z,94.70
2019-03-19T23:55:13.262Z,94.60
2019-03-19T23:57:41.743Z,94.50
